Time;durP1;ratioP1;P1;durP2;ratioP2;P2;SDS_P1;SDS_P2;PMS_P1;PMS_P2;Temp;Humidity;BMP_temperature;BMP_pressure;BME280_temperature;BME280_humidity;BME280_pressure;Samples;Min_cycle;Max_cycle;Signal;HPM_P1;HPM_P2
2022/02/13 00:00:11;;;;;;;;;;;19.00;53.30;;;;;;5052689;28;1059;-68
2022/02/13 00:02:37;;;;;;;;;;;19.00;53.30;;;;;;5052920;28;1314;-69
2022/02/13 00:05:03;;;;;;;;;;;19.00;53.30;;;;;;5053511;28;1910;-70
2022/02/13 00:07:30;;;;;;;;;;;18.90;53.30;;;;;;5052776;28;1122;-70
2022/02/13 00:09:55;;;;;;;;;;;19.00;53.40;;;;;;5053638;28;1384;-69
2022/02/13 00:12:21;;;;;;;;;;;19.00;53.40;;;;;;5052447;28;1264;-70
2022/02/13 00:14:46;;;;;;;;;;;19.00;53.40;;;;;;5053854;28;1332;-69
2022/02/13 00:17:12;;;;;;;;;;;18.90;53.40;;;;;;5052557;28;1146;-69
2022/02/13 00:19:37;;;;;;;;;;;19.00;53.50;;;;;;5053551;28;1142;-69
2022/02/13 00:22:03;;;;;;;;;;;19.00;53.50;;;;;;5074542;22;3617;-65
2022/02/13 00:24:28;;;;;;;;;;;19.00;53.50;;;;;;5039625;28;1963;-65
2022/02/13 00:26:53;;;;;;;;;;;18.90;53.50;;;;;;5053711;28;1379;-65
2022/02/13 00:29:19;;;;;;;;;;;18.90;53.50;;;;;;5069043;28;1059;-65
2022/02/13 00:31:44;;;;;;;;;;;19.00;53.60;;;;;;5052420;28;1301;-65
2022/02/13 00:34:10;;;;;;;;;;;18.90;53.60;;;;;;5050027;28;1372;-65
2022/02/13 00:36:35;;;;;;;;;;;18.90;53.60;;;;;;5032329;28;1092;-65
2022/02/13 00:39:01;;;;;;;;;;;18.90;53.60;;;;;;5032207;28;1088;-65
2022/02/13 00:41:26;;;;;;;;;;;18.90;53.60;;;;;;5033360;28;858;-65
2022/02/13 00:43:51;;;;;;;;;;;18.90;53.60;;;;;;5051532;28;1906;-65
2022/02/13 00:46:17;;;;;;;;;;;18.90;53.70;;;;;;5053370;28;1261;-66
2022/02/13 00:48:42;;;;;;;;;;;18.90;53.70;;;;;;5053080;28;1384;-65
2022/02/13 00:51:08;;;;;;;;;;;18.90;53.70;;;;;;5053347;28;1134;-65
2022/02/13 00:53:33;;;;;;;;;;;18.90;53.70;;;;;;5053118;28;1275;-65
2022/02/13 00:55:59;;;;;;;;;;;18.90;53.70;;;;;;5051858;28;996;-66
2022/02/13 00:58:27;;;;;;;;;;;18.90;53.80;;;;;;5052942;28;1118;-67
2022/02/13 01:00:52;;;;;;;;;;;18.90;53.80;;;;;;5051988;28;1362;-67
2022/02/13 01:03:17;;;;;;;;;;;18.90;53.80;;;;;;5052922;28;1943;-66
2022/02/13 01:05:43;;;;;;;;;;;18.90;53.80;;;;;;5053157;28;1077;-67
2022/02/13 01:08:08;;;;;;;;;;;18.90;53.80;;;;;;5053017;28;1287;-66
2022/02/13 01:10:34;;;;;;;;;;;18.90;54.50;;;;;;5052620;28;1122;-67
2022/02/13 01:12:59;;;;;;;;;;;18.90;53.90;;;;;;5052810;28;1263;-67
2022/02/13 01:15:25;;;;;;;;;;;18.80;53.90;;;;;;5052872;28;1039;-67
2022/02/13 01:17:50;;;;;;;;;;;18.90;54.00;;;;;;5052825;28;1155;-66
2022/02/13 01:20:16;;;;;;;;;;;18.90;54.00;;;;;;5051840;28;1134;-67
2022/02/13 01:22:41;;;;;;;;;;;18.80;53.90;;;;;;5039368;28;1267;-67
2022/02/13 01:25:07;;;;;;;;;;;18.90;54.00;;;;;;5042300;28;1963;-66
2022/02/13 01:27:32;;;;;;;;;;;18.90;54.00;;;;;;5032723;28;1393;-67
2022/02/13 01:29:58;;;;;;;;;;;18.90;54.00;;;;;;5031530;28;1281;-67
2022/02/13 01:32:23;;;;;;;;;;;18.80;54.00;;;;;;5032351;28;1561;-67
2022/02/13 01:34:49;;;;;;;;;;;18.80;54.00;;;;;;5040520;28;1068;-66
2022/02/13 01:37:14;;;;;;;;;;;18.80;54.10;;;;;;5035838;28;1137;-67
2022/02/13 01:39:40;;;;;;;;;;;18.80;54.10;;;;;;5032661;28;1079;-67
2022/02/13 01:42:09;;;;;;;;;;;18.80;54.10;;;;;;5032575;28;1506;-67
2022/02/13 01:44:34;;;;;;;;;;;18.80;54.10;;;;;;5033048;28;1953;-68
2022/02/13 01:47:00;;;;;;;;;;;18.80;54.10;;;;;;5031443;28;1332;-68
2022/02/13 01:49:25;;;;;;;;;;;18.80;54.10;;;;;;5032789;28;1164;-67
2022/02/13 01:51:51;;;;;;;;;;;18.80;54.20;;;;;;5031219;28;1326;-67
2022/02/13 01:54:16;;;;;;;;;;;18.80;54.20;;;;;;5032509;28;1103;-67
2022/02/13 01:56:42;;;;;;;;;;;18.80;54.20;;;;;;5032592;28;1159;-66
2022/02/13 01:59:08;;;;;;;;;;;18.80;54.20;;;;;;5031251;28;1283;-66
2022/02/13 02:01:33;;;;;;;;;;;18.80;54.30;;;;;;5032426;28;1287;-66
2022/02/13 02:03:59;;;;;;;;;;;18.80;54.30;;;;;;5031298;28;1973;-66
2022/02/13 02:06:24;;;;;;;;;;;18.80;54.30;;;;;;5032421;28;1147;-66
2022/02/13 02:08:49;;;;;;;;;;;18.80;54.30;;;;;;5030899;28;1281;-67
2022/02/13 02:11:15;;;;;;;;;;;18.80;54.30;;;;;;5032345;28;1292;-67
2022/02/13 02:13:40;;;;;;;;;;;18.80;54.30;;;;;;5032637;28;1427;-66
2022/02/13 02:16:08;;;;;;;;;;;18.80;54.40;;;;;;5032485;28;1139;-67
2022/02/13 02:18:33;;;;;;;;;;;18.80;54.40;;;;;;5032233;28;1157;-67
2022/02/13 02:21:02;;;;;;;;;;;18.80;54.40;;;;;;5044769;28;1386;-67
2022/02/13 02:23:28;;;;;;;;;;;18.80;54.40;;;;;;5030928;28;1906;-67
2022/02/13 02:25:53;;;;;;;;;;;18.80;54.40;;;;;;5048615;28;1103;-67
2022/02/13 02:28:19;;;;;;;;;;;18.80;54.40;;;;;;5043668;28;1157;-67
2022/02/13 02:30:44;;;;;;;;;;;18.80;54.40;;;;;;5036634;28;1222;-67
2022/02/13 02:33:11;;;;;;;;;;;18.80;54.40;;;;;;5035934;28;1278;-67
2022/02/13 02:35:36;;;;;;;;;;;18.80;54.40;;;;;;5046206;28;1143;-66
2022/02/13 02:38:02;;;;;;;;;;;18.80;55.00;;;;;;5035570;28;1087;-67
2022/02/13 02:40:27;;;;;;;;;;;18.80;54.40;;;;;;5035500;28;1071;-67
2022/02/13 02:42:53;;;;;;;;;;;18.80;54.40;;;;;;5035748;28;1709;-67
2022/02/13 02:45:18;;;;;;;;;;;18.80;54.50;;;;;;5035728;28;1902;-66
2022/02/13 02:47:43;;;;;;;;;;;18.80;54.50;;;;;;5034773;28;1107;-67
2022/02/13 02:50:09;;;;;;;;;;;18.80;54.50;;;;;;5047550;28;1100;-67
2022/02/13 02:52:35;;;;;;;;;;;18.80;54.50;;;;;;5035291;28;1376;-67
2022/02/13 02:55:01;;;;;;;;;;;18.80;54.50;;;;;;5051057;28;1198;-66
2022/02/13 02:57:26;;;;;;;;;;;18.80;54.50;;;;;;5045927;28;1122;-66
2022/02/13 02:59:52;;;;;;;;;;;18.70;54.50;;;;;;5035559;28;1485;-66
2022/02/13 03:02:17;;;;;;;;;;;18.80;54.50;;;;;;5034183;28;1263;-66
2022/02/13 03:04:43;;;;;;;;;;;18.80;54.50;;;;;;5048703;28;1910;-66
2022/02/13 03:07:08;;;;;;;;;;;18.80;54.60;;;;;;5045209;28;1165;-65
2022/02/13 03:09:34;;;;;;;;;;;18.80;54.60;;;;;;5037561;28;791;-66
2022/02/13 03:11:59;;;;;;;;;;;18.80;54.60;;;;;;5035157;28;1271;-67
2022/02/13 03:14:26;;;;;;;;;;;18.80;54.60;;;;;;5048599;28;1158;-67
2022/02/13 03:16:51;;;;;;;;;;;18.80;54.60;;;;;;5045098;28;1170;-66
2022/02/13 03:19:17;;;;;;;;;;;18.80;54.70;;;;;;5040453;28;1027;-66
2022/02/13 03:21:42;;;;;;;;;;;18.70;54.60;;;;;;5054817;28;1239;-66
2022/02/13 03:24:09;;;;;;;;;;;18.70;54.60;;;;;;5038442;28;1969;-67
2022/02/13 03:26:34;;;;;;;;;;;18.70;54.60;;;;;;5035046;28;894;-65
2022/02/13 03:29:00;;;;;;;;;;;18.70;54.60;;;;;;5048821;28;1119;-66
2022/02/13 03:31:26;;;;;;;;;;;18.70;54.60;;;;;;5034429;28;1179;-66
2022/02/13 03:33:51;;;;;;;;;;;18.70;54.60;;;;;;5036337;28;1278;-66
2022/02/13 03:36:18;;;;;;;;;;;18.70;54.70;;;;;;5043754;28;1185;-67
2022/02/13 03:38:44;;;;;;;;;;;18.70;54.70;;;;;;5053630;28;854;-68
2022/02/13 03:41:09;;;;;;;;;;;18.70;54.70;;;;;;5045211;28;885;-67
2022/02/13 03:43:35;;;;;;;;;;;18.70;54.80;;;;;;5048014;28;1887;-66
2022/02/13 03:46:00;;;;;;;;;;;18.70;54.70;;;;;;5034855;28;851;-66
2022/02/13 03:48:25;;;;;;;;;;;18.70;54.70;;;;;;5034335;28;923;-67
2022/02/13 03:50:51;;;;;;;;;;;18.70;54.80;;;;;;5035021;28;1091;-65
2022/02/13 03:53:16;;;;;;;;;;;18.70;54.80;;;;;;5047636;28;1263;-66
2022/02/13 03:55:42;;;;;;;;;;;18.70;54.80;;;;;;5034560;28;899;-66
2022/02/13 03:58:07;;;;;;;;;;;18.70;54.80;;;;;;5047730;28;1075;-66
2022/02/13 04:00:33;;;;;;;;;;;18.70;54.80;;;;;;5043061;28;1166;-66
2022/02/13 04:02:58;;;;;;;;;;;18.70;54.80;;;;;;5040600;28;1214;-66
2022/02/13 04:05:24;;;;;;;;;;;18.70;54.80;;;;;;5052902;28;1967;-66
2022/02/13 04:07:49;;;;;;;;;;;18.70;54.90;;;;;;5039573;28;936;-68
2022/02/13 04:10:15;;;;;;;;;;;18.70;54.90;;;;;;5052681;28;1403;-66
2022/02/13 04:12:40;;;;;;;;;;;18.70;54.90;;;;;;5053861;28;1339;-67
2022/02/13 04:15:06;;;;;;;;;;;18.70;54.90;;;;;;5054130;28;1070;-67
2022/02/13 04:17:31;;;;;;;;;;;18.70;54.90;;;;;;5053974;28;1063;-68
2022/02/13 04:19:57;;;;;;;;;;;18.70;54.90;;;;;;5053575;28;992;-66
2022/02/13 04:22:22;;;;;;;;;;;18.70;54.90;;;;;;5053336;28;1381;-66
2022/02/13 04:24:48;;;;;;;;;;;18.70;55.00;;;;;;5053978;28;1906;-66
2022/02/13 04:27:13;;;;;;;;;;;18.70;55.00;;;;;;5052563;28;1063;-67
2022/02/13 04:29:38;;;;;;;;;;;18.70;55.00;;;;;;5033810;28;934;-66
2022/02/13 04:32:04;;;;;;;;;;;18.70;55.00;;;;;;5034806;28;1275;-66
2022/02/13 04:34:30;;;;;;;;;;;18.70;55.00;;;;;;5050578;28;1451;-65
2022/02/13 04:36:55;;;;;;;;;;;18.70;55.00;;;;;;5052704;28;1173;-66
2022/02/13 04:39:20;;;;;;;;;;;18.70;55.00;;;;;;5033645;28;1044;-66
2022/02/13 04:41:46;;;;;;;;;;;18.70;55.00;;;;;;5045674;28;1389;-65
2022/02/13 04:44:11;;;;;;;;;;;18.70;55.00;;;;;;5033625;28;1902;-65
2022/02/13 04:46:37;;;;;;;;;;;18.70;55.10;;;;;;5046707;28;1116;-65
2022/02/13 04:49:02;;;;;;;;;;;18.70;55.10;;;;;;5045603;28;1111;-66
2022/02/13 04:51:28;;;;;;;;;;;18.60;55.00;;;;;;5032537;28;911;-66
2022/02/13 04:53:53;;;;;;;;;;;18.60;55.00;;;;;;5045766;28;1209;-66
2022/02/13 04:56:18;;;;;;;;;;;18.60;55.10;;;;;;5033420;28;804;-67
2022/02/13 04:58:44;;;;;;;;;;;18.60;55.10;;;;;;5032353;28;922;-65
2022/02/13 05:01:09;;;;;;;;;;;18.60;55.10;;;;;;5046011;28;1072;-65
2022/02/13 05:03:35;;;;;;;;;;;18.60;55.10;;;;;;5051720;28;1955;-66
2022/02/13 05:06:00;;;;;;;;;;;18.60;55.10;;;;;;5052734;28;1189;-66
2022/02/13 05:08:26;;;;;;;;;;;18.60;55.10;;;;;;5038828;28;1107;-66
2022/02/13 05:10:51;;;;;;;;;;;18.60;55.10;;;;;;5039601;28;1053;-67
2022/02/13 05:13:17;;;;;;;;;;;18.60;55.10;;;;;;5046115;28;1386;-65
2022/02/13 05:15:42;;;;;;;;;;;18.60;55.10;;;;;;5044718;28;1037;-66
2022/02/13 05:18:07;;;;;;;;;;;18.60;55.20;;;;;;5032537;28;792;-67
2022/02/13 05:20:33;;;;;;;;;;;18.60;55.20;;;;;;5032197;28;871;-66
2022/02/13 05:22:58;;;;;;;;;;;18.60;55.20;;;;;;5050486;28;1283;-65
2022/02/13 05:25:24;;;;;;;;;;;18.60;55.20;;;;;;5052087;28;1906;-67
2022/02/13 05:27:49;;;;;;;;;;;18.60;55.20;;;;;;5032506;28;1123;-65
2022/02/13 05:30:15;;;;;;;;;;;18.60;55.20;;;;;;5031455;28;1413;-65
2022/02/13 05:32:40;;;;;;;;;;;18.60;55.20;;;;;;5038550;28;1220;-66
2022/02/13 05:35:06;;;;;;;;;;;18.60;55.20;;;;;;5051111;28;783;-66
2022/02/13 05:37:31;;;;;;;;;;;18.60;55.30;;;;;;5039217;28;1126;-66
2022/02/13 05:39:57;;;;;;;;;;;18.60;55.30;;;;;;5039669;28;1055;-65
2022/02/13 05:42:24;;;;;;;;;;;18.60;55.30;;;;;;5044625;28;1294;-65
2022/02/13 05:44:52;;;;;;;;;;;18.60;55.30;;;;;;5044691;28;1969;-66
2022/02/13 05:47:18;;;;;;;;;;;18.60;55.30;;;;;;5034022;28;1199;-65
2022/02/13 05:49:43;;;;;;;;;;;18.60;55.30;;;;;;5051817;28;898;-65
2022/02/13 05:52:09;;;;;;;;;;;18.60;55.30;;;;;;5045602;28;1281;-66
2022/02/13 05:54:34;;;;;;;;;;;18.60;55.30;;;;;;5032127;28;795;-65
2022/02/13 05:56:59;;;;;;;;;;;18.60;55.30;;;;;;5038093;28;788;-65
2022/02/13 05:59:25;;;;;;;;;;;18.60;55.30;;;;;;5039389;28;1133;-66
2022/02/13 06:01:53;;;;;;;;;;;18.60;55.30;;;;;;5031015;28;1264;-66
2022/02/13 06:04:18;;;;;;;;;;;18.60;55.30;;;;;;5036152;28;1898;-67
2022/02/13 06:06:44;;;;;;;;;;;18.60;55.30;;;;;;5049430;28;1119;-67
2022/02/13 06:09:09;;;;;;;;;;;18.60;55.20;;;;;;5048497;28;1051;-66
2022/02/13 06:11:34;;;;;;;;;;;18.70;55.20;;;;;;5036332;28;1114;-65
2022/02/13 06:14:00;;;;;;;;;;;18.70;55.20;;;;;;5048383;28;1333;-66
2022/02/13 06:16:25;;;;;;;;;;;18.70;55.10;;;;;;5037249;28;1032;-66
2022/02/13 06:18:51;;;;;;;;;;;18.70;55.50;;;;;;5036016;28;1086;-66
2022/02/13 06:21:17;;;;;;;;;;;18.80;54.90;;;;;;5049674;28;1123;-66
2022/02/13 06:23:42;;;;;;;;;;;18.80;54.90;;;;;;5036621;28;1910;-66
2022/02/13 06:26:08;;;;;;;;;;;18.80;54.70;;;;;;5036105;28;1397;-66
2022/02/13 06:28:33;;;;;;;;;;;18.90;54.70;;;;;;5046294;28;1516;-66
2022/02/13 06:30:58;;;;;;;;;;;18.90;54.70;;;;;;5037746;28;1192;-66
2022/02/13 06:33:24;;;;;;;;;;;18.90;54.60;;;;;;5035727;28;1637;-66
2022/02/13 06:35:49;;;;;;;;;;;18.90;54.50;;;;;;5046259;28;1189;-66
2022/02/13 06:38:15;;;;;;;;;;;18.90;54.50;;;;;;5035071;28;1068;-66
2022/02/13 06:40:41;;;;;;;;;;;19.00;54.40;;;;;;5034376;28;1339;-66
2022/02/13 06:43:06;;;;;;;;;;;18.90;54.40;;;;;;5034562;28;1370;-67
2022/02/13 06:45:32;;;;;;;;;;;19.00;54.40;;;;;;5034486;28;1957;-66
2022/02/13 06:47:57;;;;;;;;;;;19.00;54.30;;;;;;5045841;28;1104;-66
2022/02/13 06:50:22;;;;;;;;;;;19.00;54.30;;;;;;5037056;28;1311;-66
2022/02/13 06:52:48;;;;;;;;;;;19.00;54.30;;;;;;5034396;28;1273;-66
2022/02/13 06:55:13;;;;;;;;;;;19.00;54.30;;;;;;5052321;28;1191;-66
2022/02/13 06:57:45;;;;;;;;;;;19.00;54.20;;;;;;5054210;28;1083;-66
2022/02/13 07:00:12;;;;;;;;;;;19.10;54.20;;;;;;5036696;28;1430;-66
2022/02/13 07:02:37;;;;;;;;;;;19.10;54.20;;;;;;5047309;28;1384;-66
2022/02/13 07:05:02;;;;;;;;;;;19.10;54.10;;;;;;5055117;28;1894;-66
2022/02/13 07:07:28;;;;;;;;;;;19.10;54.10;;;;;;5054194;28;1330;-66
2022/02/13 07:09:53;;;;;;;;;;;19.10;54.10;;;;;;5055129;28;1098;-66
2022/02/13 07:12:19;;;;;;;;;;;19.10;54.00;;;;;;5055060;28;1353;-67
2022/02/13 07:14:46;;;;;;;;;;;19.10;54.00;;;;;;5054869;28;1380;-66
2022/02/13 07:17:12;;;;;;;;;;;19.10;54.00;;;;;;5054862;28;1294;-67
2022/02/13 07:19:37;;;;;;;;;;;19.20;54.00;;;;;;5055367;28;1305;-68
2022/02/13 07:22:03;;;;;;;;;;;19.20;54.00;;;;;;5057166;28;1320;-69
2022/02/13 07:24:29;;;;;;;;;;;19.20;52.70;;;;;;5056361;28;1968;-67
2022/02/13 07:26:55;;;;;;;;;;;19.20;51.60;;;;;;5054860;28;1400;-67
2022/02/13 07:29:20;;;;;;;;;;;19.10;50.50;;;;;;5047744;28;1206;-67
2022/02/13 07:31:45;;;;;;;;;;;19.10;50.10;;;;;;5033333;28;1288;-67
2022/02/13 07:34:11;;;;;;;;;;;19.10;50.10;;;;;;5031496;28;1833;-66
2022/02/13 07:36:36;;;;;;;;;;;19.20;50.20;;;;;;5050491;28;2060;-67
2022/02/13 07:39:02;;;;;;;;;;;19.10;51.10;;;;;;5048314;28;1363;-67
2022/02/13 07:41:27;;;;;;;;;;;19.20;51.30;;;;;;5040370;28;1388;-66
2022/02/13 07:43:53;;;;;;;;;;;19.30;51.30;;;;;;5032355;28;1962;-66
2022/02/13 07:46:19;;;;;;;;;;;19.40;51.40;;;;;;5032244;28;1313;-65
2022/02/13 07:48:44;;;;;;;;;;;19.50;51.30;;;;;;5032173;28;1414;-66
2022/02/13 07:51:10;;;;;;;;;;;19.60;51.20;;;;;;5044979;28;1456;-67
2022/02/13 07:53:36;;;;;;;;;;;19.80;51.10;;;;;;5053434;28;1386;-67
2022/02/13 07:56:01;;;;;;;;;;;19.90;51.00;;;;;;5035663;28;1287;-68
2022/02/13 07:58:32;;;;;;;;;;;20.00;50.80;;;;;;5033961;28;1530;-66
2022/02/13 08:00:57;;;;;;;;;;;20.20;50.70;;;;;;5034559;28;1643;-67
2022/02/13 08:03:23;;;;;;;;;;;20.30;50.50;;;;;;5051680;28;1362;-66
2022/02/13 08:05:48;;;;;;;;;;;20.40;50.30;;;;;;5053315;28;2226;-66
2022/02/13 08:08:14;;;;;;;;;;;20.50;50.10;;;;;;5042020;28;1338;-66
2022/02/13 08:10:40;;;;;;;;;;;20.60;50.00;;;;;;5049610;28;1090;-66
2022/02/13 08:13:06;;;;;;;;;;;20.70;49.80;;;;;;5042464;28;1373;-66
2022/02/13 08:15:32;;;;;;;;;;;20.70;49.70;;;;;;5041827;28;1368;-66
2022/02/13 08:18:05;;;;;;;;;;;20.80;49.70;;;;;;5043037;28;1368;-66
2022/02/13 08:20:30;;;;;;;;;;;20.90;49.70;;;;;;5042637;28;1149;-66
2022/02/13 08:22:55;;;;;;;;;;;20.90;49.60;;;;;;5043018;28;1358;-67
2022/02/13 08:25:21;;;;;;;;;;;20.90;49.80;;;;;;5038586;28;1906;-67
2022/02/13 08:27:46;;;;;;;;;;;20.90;49.80;;;;;;5039971;28;1170;-65
2022/02/13 08:30:12;;;;;;;;;;;20.90;50.00;;;;;;5043703;28;1242;-66
2022/02/13 08:32:37;;;;;;;;;;;21.00;50.10;;;;;;5039689;28;1270;-66
2022/02/13 08:35:03;;;;;;;;;;;21.00;50.30;;;;;;5047282;28;1224;-66
2022/02/13 08:37:28;;;;;;;;;;;20.90;50.60;;;;;;5040153;28;1127;-65
2022/02/13 08:39:54;;;;;;;;;;;20.90;50.60;;;;;;5053394;28;1290;-67
2022/02/13 08:42:19;;;;;;;;;;;20.90;50.70;;;;;;5034382;28;1366;-65
2022/02/13 08:44:44;;;;;;;;;;;20.90;50.70;;;;;;5033410;28;1976;-65
2022/02/13 08:47:12;;;;;;;;;;;21.00;50.80;;;;;;5045502;28;1119;-66
2022/02/13 08:49:37;;;;;;;;;;;20.90;51.00;;;;;;5045718;28;1146;-65
2022/02/13 08:52:04;;;;;;;;;;;20.90;51.10;;;;;;5034170;28;1302;-65
2022/02/13 08:54:30;;;;;;;;;;;21.00;51.20;;;;;;5032330;28;823;-68
2022/02/13 08:56:55;;;;;;;;;;;21.00;51.30;;;;;;5033488;28;1061;-65
2022/02/13 08:59:21;;;;;;;;;;;20.90;51.30;;;;;;5033151;28;724;-67
2022/02/13 09:01:46;;;;;;;;;;;20.90;51.40;;;;;;5052561;28;1213;-67
2022/02/13 09:04:11;;;;;;;;;;;20.90;51.50;;;;;;5040561;28;1898;-65
2022/02/13 09:06:37;;;;;;;;;;;20.90;51.60;;;;;;5033371;28;828;-66
2022/02/13 09:09:03;;;;;;;;;;;20.90;51.90;;;;;;5033060;28;1047;-65
2022/02/13 09:11:28;;;;;;;;;;;20.90;52.30;;;;;;5050983;28;856;-65
2022/02/13 09:13:57;;;;;;;;;;;20.90;52.00;;;;;;5040833;28;1221;-66
2022/02/13 09:16:23;;;;;;;;;;;20.90;52.30;;;;;;5046440;28;948;-66
2022/02/13 09:18:48;;;;;;;;;;;20.80;52.40;;;;;;5031858;28;804;-65
2022/02/13 09:21:13;;;;;;;;;;;20.80;52.50;;;;;;5051080;28;1214;-66
2022/02/13 09:23:39;;;;;;;;;;;20.80;52.70;;;;;;5040196;28;1961;-66
2022/02/13 09:26:04;;;;;;;;;;;20.80;52.80;;;;;;5029812;28;1790;-65
2022/02/13 09:28:30;;;;;;;;;;;20.80;52.90;;;;;;5044112;28;1080;-66
2022/02/13 09:30:55;;;;;;;;;;;20.70;53.10;;;;;;5033805;28;1196;-66
2022/02/13 09:33:23;;;;;;;;;;;20.70;53.30;;;;;;5032544;28;1207;-66
2022/02/13 09:35:48;;;;;;;;;;;20.70;53.30;;;;;;5043921;28;1274;-66
2022/02/13 09:38:16;;;;;;;;;;;20.70;53.40;;;;;;5036365;28;1135;-68
2022/02/13 09:40:43;;;;;;;;;;;20.70;53.20;;;;;;5041971;28;1312;-66
2022/02/13 09:43:08;;;;;;;;;;;20.70;53.30;;;;;;5042827;28;1323;-66
2022/02/13 09:45:34;;;;;;;;;;;20.70;53.40;;;;;;5040170;28;1957;-65
2022/02/13 09:48:00;;;;;;;;;;;20.70;53.40;;;;;;5044527;28;1531;-65
2022/02/13 09:50:25;;;;;;;;;;;20.60;53.50;;;;;;5035997;28;1322;-66
2022/02/13 09:52:54;;;;;;;;;;;20.60;53.60;;;;;;5035024;28;1754;-66
2022/02/13 09:55:26;;;;;;;;;;;20.60;53.60;;;;;;5053279;28;1068;-67
2022/02/13 09:58:03;;;;;;;;;;;20.60;53.80;;;;;;5041995;28;1079;-66
2022/02/13 10:00:47;;;;;;;;;;;20.60;53.90;;;;;;5035522;28;974;-65
2022/02/13 10:03:19;;;;;;;;;;;20.60;54.10;;;;;;5037491;28;1334;-68
2022/02/13 10:05:45;;;;;;;;;;;20.60;54.10;;;;;;5035885;28;1899;-67
2022/02/13 10:08:10;;;;;;;;;;;20.60;54.20;;;;;;5038122;28;1285;-66
2022/02/13 10:10:35;;;;;;;;;;;20.60;54.20;;;;;;5044248;28;1348;-66
2022/02/13 10:13:01;;;;;;;;;;;20.60;54.30;;;;;;5035612;28;1284;-68
2022/02/13 10:15:30;;;;;;;;;;;20.60;54.40;;;;;;5036007;28;1058;-65
2022/02/13 10:17:56;;;;;;;;;;;20.60;54.40;;;;;;5046106;28;1402;-66
2022/02/13 10:20:28;;;;;;;;;;;20.60;54.50;;;;;;5046168;28;1082;-67
2022/02/13 10:22:54;;;;;;;;;;;20.60;54.50;;;;;;5054016;28;1362;-66
2022/02/13 10:25:20;;;;;;;;;;;20.50;54.40;;;;;;5054478;28;1960;-66
2022/02/13 10:27:46;;;;;;;;;;;20.50;54.40;;;;;;5055473;28;1381;-65
2022/02/13 10:30:11;;;;;;;;;;;20.50;54.50;;;;;;5041534;28;1169;-66
2022/02/13 10:32:41;;;;;;;;;;;20.50;54.50;;;;;;5034211;28;1340;-67
2022/02/13 10:35:07;;;;;;;;;;;20.50;54.60;;;;;;5046706;28;1052;-67
2022/02/13 10:37:50;;;;;;;;;;;20.50;54.80;;;;;;5035564;28;1508;-67
2022/02/13 10:40:19;;;;;;;;;;;20.50;54.90;;;;;;5037402;28;1064;-66
2022/02/13 10:42:45;;;;;;;;;;;20.50;55.00;;;;;;5044571;28;1267;-66
2022/02/13 10:45:26;;;;;;;;;;;20.40;55.00;;;;;;5034398;28;1910;-67
2022/02/13 10:47:53;;;;;;;;;;;20.40;54.90;;;;;;5034554;28;1414;-66
2022/02/13 10:50:19;;;;;;;;;;;20.40;55.10;;;;;;5035042;28;1448;-68
2022/02/13 10:52:45;;;;;;;;;;;20.40;55.00;;;;;;5034032;28;1283;-66
2022/02/13 10:55:11;;;;;;;;;;;20.40;55.70;;;;;;5035172;28;1325;-67
2022/02/13 10:57:37;;;;;;;;;;;20.40;55.10;;;;;;5035174;28;1279;-66
2022/02/13 11:00:04;;;;;;;;;;;20.40;55.20;;;;;;5034535;28;1079;-66
2022/02/13 11:02:29;;;;;;;;;;;20.40;55.20;;;;;;5035202;28;1268;-67
2022/02/13 11:04:55;;;;;;;;;;;20.40;55.30;;;;;;5033538;28;1890;-65
2022/02/13 11:07:20;;;;;;;;;;;20.40;55.30;;;;;;5035041;28;1071;-66
2022/02/13 11:09:45;;;;;;;;;;;20.40;55.90;;;;;;5033209;28;1626;-66
2022/02/13 11:12:11;;;;;;;;;;;20.40;55.30;;;;;;5033679;28;1494;-66
2022/02/13 11:14:40;;;;;;;;;;;20.40;55.30;;;;;;5031026;28;1318;-66
2022/02/13 11:17:06;;;;;;;;;;;20.40;55.40;;;;;;5053745;28;1060;-66
2022/02/13 11:19:32;;;;;;;;;;;20.40;55.40;;;;;;5054321;28;1446;-66
2022/02/13 11:21:57;;;;;;;;;;;20.40;55.40;;;;;;5042252;28;1360;-65
2022/02/13 11:24:32;;;;;;;;;;;20.40;55.50;;;;;;5033119;28;1914;-66
2022/02/13 11:27:00;;;;;;;;;;;20.40;55.40;;;;;;5033468;28;1111;-65
2022/02/13 11:29:46;;;;;;;;;;;20.40;55.50;;;;;;5047467;28;1383;-65
2022/02/13 11:32:30;;;;;;;;;;;20.40;56.20;;;;;;5034146;28;1278;-66
2022/02/13 11:34:55;;;;;;;;;;;20.30;55.60;;;;;;5044304;28;1271;-65
2022/02/13 11:37:24;;;;;;;;;;;20.30;55.60;;;;;;5039630;28;1518;-65
2022/02/13 11:39:50;;;;;;;;;;;20.40;55.60;;;;;;5053485;28;2019;-66
2022/02/13 11:42:19;;;;;;;;;;;20.40;55.60;;;;;;5051404;28;1965;-66
2022/02/13 11:44:58;;;;;;;;;;;20.40;55.60;;;;;;5049033;28;1906;-67
2022/02/13 11:47:38;;;;;;;;;;;20.30;55.70;;;;;;5049525;28;1062;-67
2022/02/13 11:50:09;;;;;;;;;;;20.30;55.60;;;;;;5037505;28;1051;-68
2022/02/13 11:52:35;;;;;;;;;;;20.30;55.60;;;;;;5034321;28;1299;-66
2022/02/13 11:55:02;;;;;;;;;;;20.30;55.70;;;;;;5032766;28;1305;-66
2022/02/13 11:57:30;;;;;;;;;;;20.30;55.70;;;;;;5034064;28;1096;-67
2022/02/13 11:59:55;;;;;;;;;;;20.30;55.80;;;;;;5031292;28;1307;-68
2022/02/13 12:02:30;;;;;;;;;;;20.30;55.90;;;;;;5033968;28;1407;-66
2022/02/13 12:05:04;;;;;;;;;;;20.30;55.80;;;;;;5033911;28;1902;-66
2022/02/13 12:07:34;;;;;;;;;;;20.30;55.90;;;;;;5045101;28;1138;-68
2022/02/13 12:09:59;;;;;;;;;;;20.30;56.00;;;;;;5035486;28;1343;-67
2022/02/13 12:12:25;;;;;;;;;;;20.30;56.00;;;;;;5040783;28;1316;-67
2022/02/13 12:14:50;;;;;;;;;;;20.30;56.10;;;;;;5043981;28;2075;-68
2022/02/13 12:17:23;;;;;;;;;;;20.30;56.10;;;;;;5053556;28;1083;-67
2022/02/13 12:19:49;;;;;;;;;;;20.30;56.20;;;;;;5033236;28;2150;-68
2022/02/13 12:22:15;;;;;;;;;;;20.30;56.10;;;;;;5051919;28;2112;-67
2022/02/13 12:24:41;;;;;;;;;;;20.30;56.20;;;;;;5047488;28;1902;-68
2022/02/13 12:27:07;;;;;;;;;;;20.30;56.30;;;;;;5048202;28;1118;-68
2022/02/13 12:29:33;;;;;;;;;;;20.30;56.30;;;;;;5033187;28;1217;-67
2022/02/13 12:32:08;;;;;;;;;;;20.30;56.20;;;;;;5034073;28;1284;-67
2022/02/13 12:34:53;;;;;;;;;;;20.30;56.30;;;;;;5040435;28;1261;-68
2022/02/13 12:37:18;;;;;;;;;;;20.30;56.30;;;;;;5034452;28;1127;-67
2022/02/13 12:39:47;;;;;;;;;;;20.30;56.30;;;;;;5033549;28;1273;-67
2022/02/13 12:42:28;;;;;;;;;;;20.30;56.80;;;;;;5033099;28;1368;-67
2022/02/13 12:44:57;;;;;;;;;;;20.30;56.40;;;;;;5033548;28;1955;-68
2022/02/13 12:47:29;;;;;;;;;;;20.30;56.40;;;;;;5040611;28;1276;-67
2022/02/13 12:49:55;;;;;;;;;;;20.30;56.40;;;;;;5052972;28;1078;-67
2022/02/13 12:52:23;;;;;;;;;;;20.30;56.40;;;;;;5052136;28;1283;-67
2022/02/13 12:54:49;;;;;;;;;;;20.20;56.40;;;;;;5053077;28;1272;-67
2022/02/13 12:57:18;;;;;;;;;;;20.30;56.40;;;;;;5053269;28;1312;-67
2022/02/13 12:59:44;;;;;;;;;;;20.30;56.50;;;;;;5052896;28;1567;-67
2022/02/13 13:02:22;;;;;;;;;;;20.30;56.40;;;;;;5051907;28;1410;-68
2022/02/13 13:04:48;;;;;;;;;;;20.30;56.50;;;;;;5051688;28;1956;-68
2022/02/13 13:07:17;;;;;;;;;;;20.30;55.00;;;;;;5052891;28;1084;-68
2022/02/13 13:09:43;;;;;;;;;;;20.20;52.90;;;;;;5052747;28;1314;-68
2022/02/13 13:12:13;;;;;;;;;;;20.20;51.20;;;;;;5041850;28;1291;-68
2022/02/13 13:14:38;;;;;;;;;;;20.10;49.70;;;;;;5031833;28;1412;-68
2022/02/13 13:17:04;;;;;;;;;;;20.00;48.00;;;;;;5031856;28;1403;-68
2022/02/13 13:19:32;;;;;;;;;;;19.90;47.10;;;;;;5049742;28;1067;-68
2022/02/13 13:21:57;;;;;;;;;;;19.90;46.10;;;;;;5051584;28;1315;-68
2022/02/13 13:24:25;;;;;;;;;;;19.80;45.20;;;;;;5051429;28;1905;-68
2022/02/13 13:26:54;;;;;;;;;;;19.80;44.20;;;;;;5053200;28;1298;-68
2022/02/13 13:29:35;;;;;;;;;;;19.70;43.40;;;;;;5047091;28;1315;-68
2022/02/13 13:32:13;;;;;;;;;;;19.70;43.20;;;;;;5031422;28;1343;-68
2022/02/13 13:34:45;;;;;;;;;;;19.70;42.60;;;;;;5039143;28;1139;-68
2022/02/13 13:37:43;;;;;;;;;;;19.60;41.70;;;;;;5036007;28;1267;-68
2022/02/13 13:40:12;;;;;;;;;;;19.50;40.80;;;;;;5044969;28;1111;-68
2022/02/13 13:42:47;;;;;;;;;;;19.50;40.50;;;;;;5051448;28;2105;-68
2022/02/13 13:45:13;;;;;;;;;;;19.50;39.80;;;;;;5050350;28;1910;-68
2022/02/13 13:47:41;;;;;;;;;;;19.40;39.70;;;;;;5041987;28;1094;-68
2022/02/13 13:50:06;;;;;;;;;;;19.40;39.40;;;;;;5048825;28;1393;-68
2022/02/13 13:52:32;;;;;;;;;;;19.30;39.20;;;;;;5051288;28;1323;-68
2022/02/13 13:54:58;;;;;;;;;;;19.40;39.20;;;;;;5039554;28;1127;-68
2022/02/13 13:57:23;;;;;;;;;;;19.30;38.90;;;;;;5031363;28;1288;-68
2022/02/13 13:59:48;;;;;;;;;;;19.30;38.80;;;;;;5032161;28;1361;-69
2022/02/13 14:02:15;;;;;;;;;;;19.30;38.70;;;;;;5042083;28;2101;-70
2022/02/13 14:04:40;;;;;;;;;;;19.30;38.70;;;;;;5043477;28;1969;-68
2022/02/13 14:07:06;;;;;;;;;;;19.20;39.20;;;;;;5043145;28;1247;-68
2022/02/13 14:09:31;;;;;;;;;;;19.20;38.20;;;;;;5037225;28;1390;-69
2022/02/13 14:11:57;;;;;;;;;;;19.20;39.80;;;;;;5044927;28;1365;-67
2022/02/13 14:14:22;;;;;;;;;;;19.20;40.60;;;;;;5036409;28;1388;-67
2022/02/13 14:16:47;;;;;;;;;;;19.20;40.80;;;;;;5032461;28;1123;-67
2022/02/13 14:19:13;;;;;;;;;;;19.20;41.30;;;;;;5032077;28;1088;-66
2022/02/13 14:21:38;;;;;;;;;;;19.20;41.80;;;;;;5032314;28;1409;-66
2022/02/13 14:24:04;;;;;;;;;;;19.20;42.30;;;;;;5033871;28;1923;-67
2022/02/13 14:26:29;;;;;;;;;;;19.20;42.50;;;;;;5035887;28;1326;-68